Time;durP1;ratioP1;P1;durP2;ratioP2;P2;SDS_P1;SDS_P2;PMS_P1;PMS_P2;Temp;Humidity;BMP_temperature;BMP_pressure;BME280_temperature;BME280_humidity;BME280_pressure;Samples;Min_cycle;Max_cycle;Signal;HPM_P1;HPM_P2
2021/12/21 00:01:10;;;;;;;4.50;1.50;;;-0.40;99.90;;;;;;5016480;28;19906;-83
2021/12/21 00:03:36;;;;;;;;;;;-0.50;99.90;;;;;;5018689;28;20089;-81
2021/12/21 00:06:02;;;;;;;4.18;1.23;;;-0.30;99.90;;;;;;5020996;28;19917;-82
2021/12/21 00:08:28;;;;;;;3.58;1.25;;;-0.30;99.90;;;;;;5021606;28;20045;-83
2021/12/21 00:10:55;;;;;;;;;;;-0.30;99.90;;;;;;5022180;28;20010;-83
2021/12/21 00:18:41;;;;;;;9.37;2.20;;;-0.20;99.90;;;;;;5022807;28;20038;-82
2021/12/21 00:21:29;;;;;;;4.00;1.40;;;-0.10;99.90;;;;;;5022522;28;20305;-83
2021/12/21 00:24:00;;;;;;;4.93;1.40;;;-0.10;99.90;;;;;;5022662;28;20026;-82
2021/12/21 00:26:25;;;;;;;4.25;1.23;;;0.00;99.90;;;;;;5022866;28;20017;-83
2021/12/21 00:31:18;;;;;;;7.65;1.10;;;0.10;99.90;;;;;;5022607;28;19996;-82
2021/12/21 00:33:46;;;;;;;2.20;1.08;;;0.10;99.90;;;;;;5022464;28;20081;-84
2021/12/21 00:36:17;;;;;;;4.03;1.40;;;0.10;99.90;;;;;;5021509;28;20034;-83
2021/12/21 00:38:45;;;;;;;4.70;1.30;;;0.00;99.90;;;;;;5022136;28;20023;-84
2021/12/21 00:41:11;;;;;;;3.00;1.15;;;0.10;99.90;;;;;;5021853;28;20034;-85
2021/12/21 00:43:37;;;;;;;4.82;1.67;;;0.00;99.90;;;;;;5021930;28;20030;-84
2021/12/21 00:46:03;;;;;;;;;;;-0.10;99.90;;;;;;5022967;28;20026;-84
2021/12/21 00:48:31;;;;;;;4.85;1.52;;;-0.10;99.90;;;;;;5022225;28;19918;-83
2021/12/21 00:50:59;;;;;;;4.40;1.73;;;-0.10;99.90;;;;;;5020596;28;20054;-83
2021/12/21 00:53:25;;;;;;;4.28;1.20;;;-0.10;99.90;;;;;;5020991;28;20078;-81
2021/12/21 00:55:52;;;;;;;2.50;1.13;;;-0.20;99.90;;;;;;5019682;28;20060;-82
2021/12/21 00:58:17;;;;;;;4.95;1.73;;;-0.30;99.90;;;;;;5020433;28;20026;-83
2021/12/21 01:00:43;;;;;;;;;;;-0.30;99.90;;;;;;5020070;28;20074;-82
2021/12/21 01:03:12;;;;;;;2.80;1.38;;;-0.40;99.90;;;;;;5020052;28;19896;-83
2021/12/21 01:05:51;;;;;;;7.90;1.38;;;-0.40;99.90;;;;;;5020312;28;20014;-84
2021/12/21 01:08:22;;;;;;;3.20;1.33;;;-0.50;99.90;;;;;;5020925;28;20010;-84
2021/12/21 01:19:01;;;;;;;3.47;1.38;;;-0.60;99.90;;;;;;5020472;28;20070;-83
2021/12/21 01:21:29;;;;;;;3.78;1.45;;;-0.60;99.90;;;;;;5020417;28;20041;-83
2021/12/21 01:24:42;;;;;;;4.13;1.45;;;-0.70;99.90;;;;;;5019673;28;20030;-83
2021/12/21 01:27:01;;;;;;;4.03;1.73;;;-0.80;99.90;;;;;;5017585;28;20077;-82
2021/12/21 01:29:44;;;;;;;5.88;1.73;;;-0.90;99.90;;;;;;5016944;28;20026;-80
2021/12/21 01:32:56;;;;;;;3.50;1.25;;;-0.80;99.90;;;;;;5019085;28;19994;-84
2021/12/21 01:35:18;;;;;;;6.25;2.40;;;-1.00;99.90;;;;;;5017196;28;20049;-84
2021/12/21 01:37:55;;;;;;;10.77;4.15;;;-1.20;99.90;;;;;;5020354;28;20073;-83
2021/12/21 01:43:21;;;;;;;24.13;8.40;;;-1.40;99.90;;;;;;5021777;28;20017;-85
2021/12/21 01:51:09;;;;;;;48.55;16.00;;;-1.60;99.90;;;;;;5021150;28;20050;-85
2021/12/21 01:53:35;;;;;;;15.57;5.93;;;-1.70;99.90;;;;;;5018393;28;20074;-81
2021/12/21 01:56:02;;;;;;;19.35;6.60;;;-1.70;99.90;;;;;;5018458;28;20041;-82
2021/12/21 01:58:28;;;;;;;32.55;10.70;;;-1.80;99.90;;;;;;5017400;28;20030;-83
2021/12/21 02:00:55;;;;;;;33.03;11.73;;;-1.80;99.90;;;;;;5033233;28;20014;-82
2021/12/21 02:03:21;;;;;;;11.18;3.67;;;-1.90;99.90;;;;;;5017021;28;20030;-81
2021/12/21 02:05:47;;;;;;;8.30;2.88;;;-2.00;99.90;;;;;;5015525;28;20045;-82
2021/12/21 02:08:12;;;;;;;;;;;-1.90;99.90;;;;;;5017504;28;20030;-82
2021/12/21 02:10:39;;;;;;;6.32;2.30;;;-1.90;99.90;;;;;;5014996;28;19910;-81
2021/12/21 02:13:05;;;;;;;5.90;1.63;;;-1.80;99.90;;;;;;5013931;28;20019;-80
2021/12/21 02:15:31;;;;;;;;;;;-1.90;99.90;;;;;;5016834;28;20042;-82
2021/12/21 02:23:09;;;;;;;5.18;1.75;;;-2.10;99.90;;;;;;5016460;28;20014;-81
2021/12/21 02:28:23;;;;;;;5.60;2.25;;;-2.20;99.90;;;;;;5017116;28;20077;-83
2021/12/21 02:30:54;;;;;;;6.20;2.80;;;-2.20;99.90;;;;;;5017855;28;20099;-83
2021/12/21 02:33:21;;;;;;;39.05;15.85;;;-2.20;99.90;;;;;;5017818;28;20015;-82
2021/12/21 02:35:47;;;;;;;13.82;6.55;;;-2.10;99.90;;;;;;5017966;28;20042;-82
2021/12/21 02:38:13;;;;;;;;;;;-2.10;99.90;;;;;;5019569;28;20010;-82
2021/12/21 02:40:39;;;;;;;5.13;2.38;;;-2.10;99.90;;;;;;5019253;28;19897;-81
2021/12/21 02:43:08;;;;;;;5.40;2.42;;;-2.10;99.90;;;;;;5019798;28;20022;-82
2021/12/21 02:45:34;;;;;;;7.85;3.08;;;-2.20;99.90;;;;;;5019386;28;20015;-80
2021/12/21 02:48:00;;;;;;;9.77;2.67;;;-2.20;99.90;;;;;;5017832;28;20034;-81
2021/12/21 02:50:26;;;;;;;;;;;-2.20;99.90;;;;;;5017316;28;20030;-80
2021/12/21 02:52:51;;;;;;;7.68;3.13;;;-2.10;99.90;;;;;;5017398;28;19905;-82
2021/12/21 02:55:18;;;;;;;;;;;-2.10;99.90;;;;;;5017568;28;20082;-81
2021/12/21 02:57:44;;;;;;;3.80;1.85;;;-2.30;99.90;;;;;;5018345;28;19916;-81
2021/12/21 03:00:11;;;;;;;5.30;1.38;;;-2.40;99.90;;;;;;5016069;28;20018;-80
2021/12/21 03:02:37;;;;;;;8.02;2.40;;;-2.50;99.90;;;;;;5013707;28;20049;-79
2021/12/21 03:05:03;;;;;;;;;;;-2.60;99.90;;;;;;5006139;28;20019;-80
2021/12/21 03:10:16;;;;;;;29.02;12.20;;;-2.50;99.90;;;;;;5019211;28;20107;-82
2021/12/21 03:15:30;;;;;;;22.48;9.52;;;-2.50;99.90;;;;;;5018512;28;20041;-82
2021/12/21 03:17:57;;;;;;;14.27;7.35;;;-2.40;99.90;;;;;;5020146;28;20011;-82
2021/12/21 03:20:24;;;;;;;19.55;8.38;;;-2.70;99.90;;;;;;5020029;28;20061;-81
2021/12/21 03:22:50;;;;;;;12.60;4.70;;;-2.60;99.90;;;;;;5019672;28;20021;-81
2021/12/21 03:25:17;;;;;;;11.27;4.70;;;-2.50;99.90;;;;;;5019860;28;20023;-83
2021/12/21 03:27:42;;;;;;;12.88;5.40;;;-2.60;99.90;;;;;;5019635;28;20011;-80
2021/12/21 03:30:09;;;;;;;;;;;-2.80;99.90;;;;;;5019899;28;20090;-80
2021/12/21 03:32:35;;;;;;;12.30;4.18;;;-2.70;99.90;;;;;;5019335;28;19949;-86
2021/12/21 03:35:01;;;;;;;;;;;-2.70;99.90;;;;;;5019297;28;20684;-81
2021/12/21 03:37:28;;;;;;;11.68;4.75;;;-2.70;99.90;;;;;;5018787;28;19918;-82
2021/12/21 03:39:55;;;;;;;11.70;4.88;;;-2.90;99.90;;;;;;5017796;28;20014;-81
2021/12/21 03:42:23;;;;;;;10.35;4.03;;;-2.80;99.90;;;;;;5018980;28;20010;-81
2021/12/21 03:44:49;;;;;;;14.13;5.38;;;-2.60;99.90;;;;;;5018699;28;20042;-83
2021/12/21 03:47:16;;;;;;;;;;;-2.70;99.90;;;;;;5018516;28;20007;-84
2021/12/21 03:52:17;;;;;;;12.77;6.45;;;-2.90;99.90;;;;;;5019782;28;19901;-79
2021/12/21 03:54:46;;;;;;;5.15;1.75;;;-2.90;99.90;;;;;;5019323;28;20035;-82
2021/12/21 03:57:13;;;;;;;4.07;1.30;;;-2.80;99.90;;;;;;5018533;28;20019;-81
2021/12/21 04:13:22;;;;;;;17.27;6.30;;;-3.20;99.90;;;;;;5333919;23;20043;-79
2021/12/21 04:15:52;;;;;;;;;;;-3.30;99.90;;;;;;4998867;28;20035;-81
2021/12/21 04:18:20;;;;;;;16.48;7.07;;;-3.40;99.90;;;;;;4997207;28;19894;-80
2021/12/21 04:20:46;;;;;;;11.38;5.90;;;-3.50;99.90;;;;;;4997571;28;20014;-82
2021/12/21 04:23:12;;;;;;;12.65;4.90;;;-3.40;99.90;;;;;;4999183;28;20015;-81
2021/12/21 04:25:38;;;;;;;10.32;4.60;;;-3.40;99.90;;;;;;4997892;28;20030;-82
2021/12/21 04:28:04;;;;;;;;;;;-3.40;99.90;;;;;;4998188;28;20027;-81
2021/12/21 04:30:31;;;;;;;14.63;5.07;;;-3.40;99.90;;;;;;4997292;28;19895;-82
2021/12/21 04:32:57;;;;;;;13.00;4.93;;;-3.50;99.90;;;;;;4994301;28;20019;-80
2021/12/21 04:35:23;;;;;;;12.20;4.18;;;-3.60;99.90;;;;;;4996450;28;20014;-79
2021/12/21 04:37:59;;;;;;;14.80;5.18;;;-3.60;99.90;;;;;;4996537;28;20015;-81
2021/12/21 04:40:42;;;;;;;13.23;5.60;;;-3.60;99.90;;;;;;4997665;28;20034;-80
2021/12/21 04:43:08;;;;;;;8.95;4.15;;;-3.70;99.90;;;;;;4995816;28;20014;-81
2021/12/21 04:45:33;;;;;;;8.68;3.72;;;-3.60;99.90;;;;;;4997431;28;20027;-82
2021/12/21 04:47:59;;;;;;;;;;;-3.70;99.90;;;;;;4997575;28;20022;-81
2021/12/21 04:50:25;;;;;;;6.75;2.88;;;-3.70;99.90;;;;;;5000587;28;19894;-82
2021/12/21 04:52:51;;;;;;;7.35;2.72;;;-3.70;99.90;;;;;;5001389;28;20086;-81
2021/12/21 04:55:17;;;;;;;14.68;8.50;;;-3.70;99.90;;;;;;5002151;28;20034;-82
2021/12/21 04:57:43;;;;;;;12.73;6.20;;;-3.70;99.90;;;;;;5001947;28;20051;-81
2021/12/21 05:30:43;;;;;;;15.40;7.03;;;-3.30;99.90;;;;;;5013785;23;20122;-80
2021/12/21 05:33:10;;;;;;;9.57;4.95;;;-3.20;99.90;;;;;;5020623;28;20065;-82
2021/12/21 05:35:36;;;;;;;19.90;6.32;;;-3.20;99.90;;;;;;5020252;28;20019;-82
2021/12/21 05:38:06;;;;;;;29.88;11.68;;;-3.10;99.90;;;;;;5019639;28;20014;-82
2021/12/21 05:40:42;;;;;;;24.45;10.85;;;-3.30;99.90;;;;;;5036209;28;20098;-83
2021/12/21 05:43:09;;;;;;;17.20;6.75;;;-3.40;99.90;;;;;;5037180;28;20057;-83
2021/12/21 05:45:36;;;;;;;9.05;2.70;;;-3.40;99.90;;;;;;5021147;28;20010;-80
2021/12/21 05:48:03;;;;;;;10.82;3.15;;;-3.40;99.90;;;;;;5021704;28;20006;-82
2021/12/21 05:50:29;;;;;;;11.90;4.10;;;-3.50;99.90;;;;;;5021422;28;20038;-82
2021/12/21 05:52:54;;;;;;;;;;;-3.50;99.90;;;;;;5021759;28;20017;-83
2021/12/21 05:55:21;;;;;;;24.75;9.80;;;-3.70;99.90;;;;;;5021165;28;19908;-79
2021/12/21 05:57:48;;;;;;;21.27;8.07;;;-3.60;99.90;;;;;;5021914;28;20010;-80
2021/12/21 06:16:10;;;;;;;12.55;4.10;;;-4.20;99.90;;;;;;5001120;28;20081;-80
2021/12/21 06:26:59;;;;;;;10.15;4.55;;;-4.30;99.90;;;;;;5001230;28;20038;-81
2021/12/21 06:29:25;;;;;;;13.13;5.45;;;-4.30;99.90;;;;;;5000826;28;20011;-83
2021/12/21 06:31:51;;;;;;;12.32;4.60;;;-4.50;99.90;;;;;;5001097;28;20033;-81
2021/12/21 06:34:17;;;;;;;28.75;11.73;;;-4.40;99.90;;;;;;5001017;28;20055;-80
2021/12/21 06:36:43;;;;;;;20.85;8.77;;;-4.20;99.90;;;;;;5000859;28;20046;-83
2021/12/21 06:39:09;;;;;;;26.52;11.50;;;-4.30;99.90;;;;;;5000517;28;20023;-81
2021/12/21 06:41:36;;;;;;;23.85;10.73;;;-4.30;99.90;;;;;;4999957;28;20035;-81
2021/12/21 06:44:04;;;;;;;14.27;5.30;;;-4.40;99.90;;;;;;5001102;28;20056;-82
2021/12/21 06:46:48;;;;;;;12.52;5.35;;;-4.40;99.90;;;;;;4999698;28;20027;-82
2021/12/21 06:52:00;;;;;;;15.95;5.63;;;-4.50;99.90;;;;;;5000182;28;20035;-82
2021/12/21 06:54:27;;;;;;;13.30;5.95;;;-4.60;99.90;;;;;;5000655;28;20007;-80
2021/12/21 06:56:53;;;;;;;29.13;15.65;;;-4.50;99.90;;;;;;5000904;28;20026;-81
2021/12/21 06:59:19;;;;;;;60.20;26.75;;;-4.40;99.90;;;;;;5000484;28;20030;-83
2021/12/21 07:01:48;;;;;;;193.68;85.05;;;-4.30;99.90;;;;;;5000503;28;20015;-81
2021/12/21 07:04:14;;;;;;;115.97;46.97;;;-4.40;99.90;;;;;;4999062;28;20079;-81
2021/12/21 07:06:41;;;;;;;70.85;29.00;;;-4.40;99.90;;;;;;4999063;28;20027;-79
2021/12/21 07:09:25;;;;;;;72.18;28.98;;;-4.40;99.90;;;;;;4998145;28;20038;-79
2021/12/21 07:12:08;;;;;;;85.47;38.67;;;-4.30;99.90;;;;;;4998331;28;20011;-81
2021/12/21 07:20:03;;;;;;;64.20;26.92;;;-3.70;99.90;;;;;;5000862;28;20018;-80
2021/12/21 07:22:29;;;;;;;76.93;30.65;;;-3.40;99.90;;;;;;5000215;28;20015;-80
2021/12/21 07:24:55;;;;;;;;;;;-3.10;99.90;;;;;;5001105;28;20026;-81
2021/12/21 07:27:20;;;;;;;99.72;31.95;;;-2.80;99.90;;;;;;5000688;28;19901;-80
2021/12/21 07:29:48;;;;;;;;;;;-2.50;99.90;;;;;;5000803;28;20011;-81
2021/12/21 07:32:14;;;;;;;81.38;32.20;;;-2.30;99.90;;;;;;5000568;28;19953;-79
2021/12/21 07:34:39;;;;;;;;;;;-2.10;99.90;;;;;;5000374;28;20038;-82
2021/12/21 07:37:09;;;;;;;50.25;22.00;;;-2.00;99.90;;;;;;5000263;28;19965;-77
2021/12/21 07:39:35;;;;;;;38.50;16.13;;;-1.90;99.90;;;;;;5000626;28;20003;-82
2021/12/21 07:42:01;;;;;;;36.90;16.80;;;-1.60;99.90;;;;;;5000059;28;20019;-80
2021/12/21 07:44:27;;;;;;;;;;;-1.60;99.90;;;;;;5000273;28;20038;-80
2021/12/21 07:46:53;;;;;;;44.60;20.38;;;-1.30;99.90;;;;;;5000428;28;19894;-81
2021/12/21 07:49:18;;;;;;;;;;;-1.00;99.90;;;;;;5000053;28;20023;-85
2021/12/21 07:51:45;;;;;;;92.68;39.75;;;-0.40;99.90;;;;;;5000062;28;19894;-85
2021/12/21 07:54:10;;;;;;;84.25;37.72;;;-0.10;99.90;;;;;;4999934;28;20011;-84
2021/12/21 07:56:36;;;;;;;;;;;0.20;99.90;;;;;;4999184;28;20019;-82
2021/12/21 07:59:04;;;;;;;77.53;32.47;;;0.30;99.90;;;;;;4999348;28;19922;-85
2021/12/21 08:01:30;;;;;;;81.30;34.53;;;0.60;99.90;;;;;;4998637;28;20011;-84
2021/12/21 08:03:57;;;;;;;62.83;29.48;;;0.80;99.90;;;;;;4997311;28;20011;-84
2021/12/21 08:06:23;;;;;;;62.03;27.63;;;1.00;99.90;;;;;;4996475;28;20023;-84
2021/12/21 08:08:50;;;;;;;41.05;20.17;;;1.30;99.90;;;;;;4997234;28;20021;-85
2021/12/21 08:12:10;;;;;;;16.85;7.28;;;1.70;99.90;;;;;;4997587;28;20046;-85
2021/12/21 08:14:13;;;;;;;;;;;2.00;92.00;;;;;;4998608;28;20127;-85
2021/12/21 08:16:41;;;;;;;8.82;3.75;;;2.50;80.20;;;;;;4997742;28;19894;-84
2021/12/21 08:19:07;;;;;;;9.40;4.53;;;2.80;81.40;;;;;;4996852;28;20077;-82
2021/12/21 08:21:35;;;;;;;;;;;3.00;80.60;;;;;;4997945;28;20026;-82
2021/12/21 08:24:01;;;;;;;7.63;2.80;;;3.30;75.20;;;;;;4998094;28;19938;-84
2021/12/21 08:26:27;;;;;;;;;;;3.60;74.00;;;;;;4999684;28;20035;-83
2021/12/21 08:28:52;;;;;;;8.10;3.25;;;3.90;67.40;;;;;;5003224;28;19914;-84
2021/12/21 08:31:18;;;;;;;7.50;3.40;;;3.70;69.50;;;;;;5002366;28;20034;-83
2021/12/21 08:33:44;;;;;;;10.23;4.63;;;3.60;73.20;;;;;;5003370;28;20030;-84
2021/12/21 08:36:11;;;;;;;15.32;6.32;;;3.60;73.90;;;;;;5003052;28;20062;-81
2021/12/21 08:38:40;;;;;;;13.20;6.38;;;3.50;73.50;;;;;;5002882;28;20011;-84
2021/12/21 08:41:06;;;;;;;16.13;8.13;;;3.40;74.40;;;;;;5018187;28;20019;-83
2021/12/21 08:43:33;;;;;;;;;;;3.20;75.70;;;;;;5001413;28;20034;-84
2021/12/21 08:46:00;;;;;;;12.38;6.80;;;3.10;75.00;;;;;;4999664;28;19929;-84
2021/12/21 08:48:27;;;;;;;11.45;5.90;;;3.20;76.50;;;;;;5000153;28;20039;-84
2021/12/21 08:50:55;;;;;;;14.73;8.65;;;3.00;75.70;;;;;;5000101;28;20018;-84
2021/12/21 08:53:22;;;;;;;16.88;6.22;;;2.90;77.70;;;;;;4999082;28;20086;-84
2021/12/21 08:55:51;;;;;;;14.55;7.20;;;2.90;70.90;;;;;;4998136;28;20038;-84
2021/12/21 08:58:18;;;;;;;20.23;7.38;;;2.70;75.80;;;;;;4998563;28;20019;-84
2021/12/21 09:00:44;;;;;;;9.10;4.38;;;2.70;79.30;;;;;;4998855;28;20050;-84
2021/12/21 09:03:11;;;;;;;8.88;3.88;;;2.80;75.70;;;;;;4998752;28;20054;-83
2021/12/21 09:05:39;;;;;;;10.65;3.92;;;2.90;76.30;;;;;;4999040;28;20086;-84
2021/12/21 09:08:06;;;;;;;14.93;6.85;;;2.70;77.60;;;;;;4999933;28;20014;-84
2021/12/21 09:10:32;;;;;;;8.57;4.15;;;2.60;79.50;;;;;;4999711;28;20007;-84
2021/12/21 09:12:59;;;;;;;10.23;3.70;;;2.60;81.10;;;;;;4999943;28;20054;-84
2021/12/21 09:15:26;;;;;;;14.40;6.93;;;2.60;81.30;;;;;;4999276;28;20034;-84
2021/12/21 09:17:53;;;;;;;8.10;2.28;;;2.40;80.40;;;;;;5000570;28;20030;-84
2021/12/21 09:20:22;;;;;;;8.70;4.32;;;2.60;82.80;;;;;;4999912;28;20035;-84
2021/12/21 09:22:49;;;;;;;7.07;3.15;;;2.30;85.30;;;;;;5000226;28;20027;-84
2021/12/21 09:25:15;;;;;;;9.82;2.22;;;2.30;83.10;;;;;;4999712;28;20090;-83
2021/12/21 09:27:41;;;;;;;5.90;2.42;;;2.20;86.60;;;;;;4999041;28;20054;-85
2021/12/21 09:30:08;;;;;;;;;;;2.20;86.50;;;;;;5000130;28;20035;-84
2021/12/21 09:32:35;;;;;;;14.88;5.60;;;2.20;86.80;;;;;;5000112;28;19906;-84
2021/12/21 09:35:01;;;;;;;26.15;8.80;;;2.20;89.30;;;;;;4999885;28;20058;-84
2021/12/21 09:37:27;;;;;;;25.55;10.45;;;2.20;86.70;;;;;;4997591;28;20214;-84
2021/12/21 09:39:54;;;;;;;;;;;2.10;86.60;;;;;;4999617;28;20526;-85
2021/12/21 09:42:23;;;;;;;27.17;10.57;;;2.30;86.20;;;;;;4999552;28;19929;-85
2021/12/21 09:44:49;;;;;;;100.43;31.48;;;2.20;86.30;;;;;;5000345;28;20066;-85
2021/12/21 09:47:16;;;;;;;43.90;14.77;;;2.10;85.80;;;;;;4999931;28;20065;-84
2021/12/21 09:49:43;;;;;;;178.10;59.63;;;2.20;85.60;;;;;;4999870;28;20023;-84
2021/12/21 09:52:12;;;;;;;39.00;18.83;;;2.10;83.80;;;;;;4999751;28;20031;-83
2021/12/21 09:54:39;;;;;;;22.02;10.05;;;2.00;82.60;;;;;;4999803;28;20031;-84
2021/12/21 09:57:06;;;;;;;9.63;3.95;;;2.10;85.90;;;;;;5000316;28;20026;-85
2021/12/21 09:59:32;;;;;;;6.20;3.53;;;2.10;85.80;;;;;;5000269;28;20034;-85
2021/12/21 10:01:58;;;;;;;;;;;2.00;84.10;;;;;;5000591;28;20015;-85
2021/12/21 10:04:26;;;;;;;5.28;1.52;;;2.00;85.10;;;;;;5000255;28;19894;-84
2021/12/21 10:06:54;;;;;;;10.15;1.98;;;2.00;85.30;;;;;;4999732;28;20022;-84
2021/12/21 10:09:24;;;;;;;7.78;2.88;;;2.10;84.00;;;;;;4998388;28;20054;-84
2021/12/21 10:11:51;;;;;;;5.53;1.92;;;2.00;87.50;;;;;;4997701;28;20015;-83
2021/12/21 10:14:18;;;;;;;9.80;4.20;;;2.10;84.10;;;;;;5013114;28;20039;-83
2021/12/21 10:16:47;;;;;;;8.52;2.15;;;2.20;82.50;;;;;;4997358;28;20058;-84
2021/12/21 10:19:21;;;;;;;4.18;1.35;;;2.10;81.20;;;;;;4999036;28;20078;-84
2021/12/21 10:21:47;;;;;;;6.85;1.90;;;2.10;83.40;;;;;;4999430;28;20015;-84
2021/12/21 10:24:24;;;;;;;6.18;2.15;;;2.10;80.10;;;;;;4999952;28;20014;-84
2021/12/21 10:26:51;;;;;;;;;;;2.00;80.90;;;;;;4999278;28;20030;-84
2021/12/21 10:29:17;;;;;;;6.43;1.90;;;2.10;81.00;;;;;;4998823;28;19890;-83
2021/12/21 10:31:45;;;;;;;5.30;1.48;;;2.00;81.90;;;;;;4994407;28;20027;-83
2021/12/21 10:34:15;;;;;;;3.28;0.82;;;2.10;81.50;;;;;;4988706;28;20090;-83
2021/12/21 10:36:50;;;;;;;4.70;1.55;;;2.20;78.90;;;;;;4991661;28;20027;-82
2021/12/21 10:39:21;;;;;;;8.02;1.10;;;2.30;76.50;;;;;;4986053;28;20039;-83
2021/12/21 10:41:47;;;;;;;4.45;1.63;;;2.30;76.60;;;;;;4983414;28;20058;-81
2021/12/21 10:44:16;;;;;;;4.95;1.80;;;2.30;75.80;;;;;;4988360;28;20035;-83
2021/12/21 10:46:45;;;;;;;4.78;1.60;;;2.30;76.70;;;;;;4981813;28;20038;-83
2021/12/21 10:49:19;;;;;;;5.53;2.45;;;2.10;79.20;;;;;;4989777;28;20086;-82
2021/12/21 10:52:05;;;;;;;7.97;2.92;;;2.20;82.40;;;;;;4983536;28;20108;-82
2021/12/21 10:54:42;;;;;;;10.82;1.95;;;2.20;83.10;;;;;;4983225;28;20038;-83
2021/12/21 10:57:11;;;;;;;5.57;1.70;;;2.30;85.20;;;;;;4990572;28;20038;-82
2021/12/21 10:59:46;;;;;;;10.40;3.92;;;2.30;82.10;;;;;;4993968;28;20022;-83
2021/12/21 11:02:19;;;;;;;9.40;3.00;;;2.30;82.00;;;;;;4997359;28;20038;-84
2021/12/21 11:04:52;;;;;;;6.30;2.50;;;2.30;80.20;;;;;;4996968;28;20037;-84
2021/12/21 11:07:30;;;;;;;5.70;1.90;;;2.30;80.90;;;;;;5000397;28;20015;-82
2021/12/21 11:09:58;;;;;;;4.90;1.67;;;2.30;81.40;;;;;;4999442;28;20007;-85
2021/12/21 11:12:26;;;;;;;5.88;1.77;;;2.30;82.60;;;;;;4998803;28;20033;-85
2021/12/21 11:14:54;;;;;;;7.28;2.05;;;2.40;81.80;;;;;;4999379;28;20021;-86
2021/12/21 11:17:21;;;;;;;5.45;2.17;;;2.30;81.40;;;;;;4999217;28;20022;-85
2021/12/21 11:19:50;;;;;;;7.90;1.88;;;2.50;79.50;;;;;;4997709;28;20022;-84
2021/12/21 11:22:16;;;;;;;9.23;3.58;;;2.60;77.70;;;;;;4997573;28;20023;-83
2021/12/21 11:24:44;;;;;;;8.32;2.20;;;2.60;77.50;;;;;;5011974;28;20030;-83
2021/12/21 11:27:11;;;;;;;8.57;3.42;;;2.60;76.70;;;;;;4997414;28;20090;-83
2021/12/21 11:29:39;;;;;;;11.85;5.07;;;2.70;74.70;;;;;;4997040;28;20023;-83
2021/12/21 11:32:07;;;;;;;17.02;8.35;;;2.70;74.50;;;;;;4996717;28;20086;-84
2021/12/21 11:34:36;;;;;;;45.83;17.33;;;2.70;77.80;;;;;;4995807;28;20022;-84
2021/12/21 11:37:21;;;;;;;126.03;48.55;;;2.80;77.80;;;;;;4997327;28;20031;-84
2021/12/21 11:39:47;;;;;;;181.15;70.60;;;2.70;77.00;;;;;;4995518;28;20098;-84
2021/12/21 11:42:40;;;;;;;46.03;19.20;;;2.70;77.90;;;;;;4999726;28;20011;-83
2021/12/21 11:45:14;;;;;;;34.90;16.23;;;2.70;77.90;;;;;;4997570;28;20045;-85
2021/12/21 11:47:56;;;;;;;20.48;8.85;;;2.70;77.60;;;;;;4996983;28;20023;-84
2021/12/21 11:50:23;;;;;;;49.67;22.20;;;2.70;79.50;;;;;;4997595;28;20030;-85
2021/12/21 11:53:01;;;;;;;31.08;13.60;;;2.70;77.90;;;;;;4996648;28;20094;-85
2021/12/21 11:55:29;;;;;;;22.10;10.00;;;2.80;78.50;;;;;;4996380;28;20050;-85
2021/12/21 11:58:00;;;;;;;24.30;12.48;;;2.70;78.50;;;;;;4995973;28;20010;-84
2021/12/21 12:00:32;;;;;;;47.30;24.48;;;2.70;77.20;;;;;;4997372;28;20062;-85
2021/12/21 12:03:10;;;;;;;28.73;13.38;;;2.60;73.10;;;;;;4997836;28;20018;-85
2021/12/21 12:05:36;;;;;;;8.25;3.55;;;2.50;77.00;;;;;;4996769;28;20034;-84
2021/12/21 12:08:08;;;;;;;17.75;8.60;;;2.50;79.10;;;;;;4996816;28;20035;-83
2021/12/21 12:10:46;;;;;;;12.15;6.15;;;2.50;79.90;;;;;;4996535;28;20015;-84
2021/12/21 12:13:16;;;;;;;11.27;4.80;;;2.50;80.60;;;;;;4996179;28;20034;-85
2021/12/21 12:15:53;;;;;;;4.90;2.13;;;2.50;79.10;;;;;;4996834;28;20049;-85
2021/12/21 12:18:27;;;;;;;8.75;4.10;;;2.60;74.10;;;;;;4996633;28;20023;-85
2021/12/21 12:20:54;;;;;;;7.75;2.90;;;2.50;72.30;;;;;;5012075;28;20023;-85
2021/12/21 12:23:21;;;;;;;4.45;1.95;;;2.40;75.80;;;;;;4996572;28;20029;-84
2021/12/21 12:25:57;;;;;;;4.07;1.50;;;2.50;80.10;;;;;;4997517;28;20030;-84
2021/12/21 12:28:28;;;;;;;5.47;2.05;;;2.50;80.90;;;;;;4997725;28;20035;-84
2021/12/21 12:30:54;;;;;;;3.28;1.10;;;2.50;79.70;;;;;;4997404;28;20050;-84
2021/12/21 12:33:20;;;;;;;6.10;1.77;;;2.50;81.40;;;;;;4997692;28;20030;-84
2021/12/21 12:35:46;;;;;;;;;;;2.60;83.00;;;;;;4998052;28;20023;-84
2021/12/21 12:38:12;;;;;;;5.97;2.17;;;2.60;80.60;;;;;;4996873;28;19949;-84
2021/12/21 12:40:43;;;;;;;;;;;2.70;80.90;;;;;;4997262;28;20053;-84
2021/12/21 12:43:18;;;;;;;4.95;1.80;;;2.50;79.50;;;;;;4996417;28;19896;-85
2021/12/21 12:45:54;;;;;;;5.82;2.58;;;2.50;78.70;;;;;;4996280;28;20031;-85
2021/12/21 12:48:30;;;;;;;4.88;1.58;;;2.50;81.60;;;;;;4997516;28;20090;-85
2021/12/21 12:50:59;;;;;;;5.82;2.20;;;2.40;82.50;;;;;;5012587;28;20015;-84
2021/12/21 12:53:40;;;;;;;9.02;2.67;;;2.60;82.00;;;;;;4997983;28;20034;-84
2021/12/21 12:56:07;;;;;;;7.75;2.58;;;2.50;82.10;;;;;;4996931;28;20006;-85
2021/12/21 12:58:35;;;;;;;7.82;3.65;;;2.50;81.90;;;;;;4997124;28;20035;-85
2021/12/21 13:01:06;;;;;;;8.93;1.90;;;2.50;79.20;;;;;;4995751;28;20003;-84
2021/12/21 13:03:37;;;;;;;5.93;1.23;;;2.50;76.30;;;;;;5013140;28;20022;-84
2021/12/21 13:06:12;;;;;;;43.83;17.48;;;2.60;76.00;;;;;;4996313;28;20038;-84
2021/12/21 13:08:39;;;;;;;48.60;21.35;;;2.50;76.50;;;;;;4997226;28;20038;-85
2021/12/21 13:11:05;;;;;;;10.18;4.22;;;2.50;74.30;;;;;;4997790;28;20007;-85
2021/12/21 13:13:34;;;;;;;27.98;13.88;;;2.50;74.60;;;;;;4999445;28;20058;-84
2021/12/21 13:16:12;;;;;;;9.75;4.68;;;2.50;74.00;;;;;;4999191;28;20038;-85
2021/12/21 13:18:44;;;;;;;24.63;13.63;;;2.50;72.10;;;;;;4998830;28;20019;-85
2021/12/21 13:21:25;;;;;;;7.68;3.80;;;2.60;74.50;;;;;;4999432;28;20035;-84
2021/12/21 13:23:59;;;;;;;5.95;2.28;;;2.60;73.00;;;;;;4998898;28;20033;-83
2021/12/21 13:26:36;;;;;;;5.07;1.85;;;2.60;73.50;;;;;;4998856;28;20045;-86
2021/12/21 13:29:03;;;;;;;5.15;2.53;;;2.60;74.00;;;;;;5014961;28;20038;-85
2021/12/21 13:31:29;;;;;;;4.80;1.95;;;2.50;73.80;;;;;;4999358;28;20039;-85
2021/12/21 13:33:56;;;;;;;;;;;2.50;73.00;;;;;;5000226;28;20027;-85
2021/12/21 13:36:45;;;;;;;4.38;2.00;;;2.50;75.50;;;;;;5000151;28;19921;-85
2021/12/21 13:39:27;;;;;;;3.55;1.13;;;2.40;77.60;;;;;;4999703;28;20023;-85
2021/12/21 13:41:59;;;;;;;4.40;1.45;;;2.40;77.60;;;;;;5000623;28;20034;-84
2021/12/21 13:44:34;;;;;;;5.45;1.58;;;2.40;80.50;;;;;;4999242;28;20033;-85
2021/12/21 13:47:03;;;;;;;4.72;1.63;;;2.30;81.80;;;;;;4999771;28;20027;-85
2021/12/21 13:49:29;;;;;;;4.03;1.88;;;2.30;84.20;;;;;;5000900;28;20006;-84
2021/12/21 13:51:56;;;;;;;;;;;2.20;86.20;;;;;;5000189;28;20054;-85
2021/12/21 13:54:24;;;;;;;6.10;1.25;;;2.10;87.50;;;;;;4999573;28;19906;-84
2021/12/21 13:56:51;;;;;;;5.93;1.60;;;2.20;87.10;;;;;;4999786;28;20011;-85
2021/12/21 13:59:18;;;;;;;4.53;1.58;;;2.00;89.30;;;;;;4999362;28;20019;-84
2021/12/21 14:01:48;;;;;;;4.38;1.83;;;2.00;90.30;;;;;;5000121;28;20050;-85
2021/12/21 14:04:17;;;;;;;5.72;1.73;;;2.00;90.90;;;;;;5000372;28;20022;-85
2021/12/21 14:06:45;;;;;;;7.22;1.80;;;1.80;91.30;;;;;;5015583;28;20034;-85
2021/12/21 14:09:12;;;;;;;7.32;2.35;;;1.80;92.30;;;;;;4998776;28;20035;-84
2021/12/21 14:11:40;;;;;;;7.80;2.50;;;1.80;93.00;;;;;;4999061;28;20029;-84
2021/12/21 14:14:15;;;;;;;4.85;2.38;;;1.80;93.20;;;;;;4997869;28;20057;-84
2021/12/21 14:16:44;;;;;;;9.40;2.10;;;1.60;93.40;;;;;;4998956;28;20031;-84
2021/12/21 14:19:18;;;;;;;10.90;4.13;;;1.60;93.80;;;;;;5000041;28;20042;-84
2021/12/21 14:21:46;;;;;;;23.42;9.68;;;1.60;94.20;;;;;;4998969;28;20038;-84
2021/12/21 14:24:25;;;;;;;28.92;11.20;;;1.40;94.40;;;;;;4998938;28;20023;-85
2021/12/21 14:26:53;;;;;;;26.83;9.18;;;1.40;94.90;;;;;;4999050;28;20046;-84
2021/12/21 14:29:24;;;;;;;27.52;9.63;;;1.30;95.10;;;;;;4999692;28;20009;-84
2021/12/21 14:32:15;;;;;;;27.23;10.80;;;1.20;95.60;;;;;;5000249;28;20015;-84
2021/12/21 14:34:44;;;;;;;20.90;8.50;;;1.20;95.90;;;;;;4999656;28;20031;-84
2021/12/21 14:37:14;;;;;;;23.52;8.25;;;1.00;96.60;;;;;;4998893;28;20119;-83
2021/12/21 14:39:42;;;;;;;32.85;11.23;;;0.90;96.60;;;;;;4999258;28;20031;-83
2021/12/21 14:42:12;;;;;;;40.05;14.98;;;0.90;97.00;;;;;;4998961;28;20090;-85
2021/12/21 14:44:51;;;;;;;25.95;9.63;;;0.70;97.40;;;;;;4998633;28;20058;-84
2021/12/21 14:47:25;;;;;;;18.27;8.32;;;0.60;97.40;;;;;;4999129;28;20042;-84
2021/12/21 14:50:06;;;;;;;19.52;7.50;;;0.60;97.80;;;;;;4999224;28;20053;-84
2021/12/21 14:52:49;;;;;;;21.08;8.68;;;0.50;97.80;;;;;;4999848;28;20087;-83
2021/12/21 14:55:24;;;;;;;68.10;30.05;;;0.50;98.00;;;;;;4999103;28;20035;-84
2021/12/21 14:57:51;;;;;;;299.77;139.68;;;0.40;98.50;;;;;;4999123;28;20042;-84
2021/12/21 15:00:19;;;;;;;325.13;139.57;;;0.30;99.10;;;;;;4999188;28;20007;-84
2021/12/21 15:05:16;;;;;;;169.63;78.03;;;0.10;99.90;;;;;;4999428;28;20007;-84